createdAt,value
2022-08-19T17:31:48.779Z,26.16
2022-08-19T17:34:17.937Z,26.15
2022-08-19T17:36:46.186Z,26.07
2022-08-19T17:39:14.495Z,25.99
2022-08-19T17:41:44.458Z,25.99
2022-08-19T17:44:13.907Z,25.97
2022-08-19T17:46:42.235Z,25.93
2022-08-19T17:49:10.657Z,25.92
2022-08-19T17:51:43.386Z,25.90
2022-08-19T17:54:15.909Z,25.94
2022-08-19T17:56:45.896Z,26.00
2022-08-19T17:59:15.555Z,25.96
2022-08-19T18:01:53.558Z,25.91
2022-08-19T18:04:25.641Z,25.95
2022-08-19T18:06:55.815Z,25.91
2022-08-19T18:09:41.184Z,25.78
2022-08-19T18:12:12.258Z,25.85
2022-08-19T18:14:41.829Z,25.73
2022-08-19T18:17:13.567Z,25.69
2022-08-19T18:19:44.182Z,25.70
2022-08-19T18:22:33.796Z,25.62
2022-08-19T18:25:22.969Z,25.63
2022-08-19T18:27:52.647Z,25.62
2022-08-19T18:30:22.836Z,25.52
2022-08-19T18:32:53.080Z,25.64
2022-08-19T18:35:30.048Z,25.70
2022-08-19T18:38:01.306Z,25.73
2022-08-19T18:40:48.666Z,25.65
2022-08-19T18:43:17.306Z,25.66
2022-08-19T18:46:04.533Z,25.72
2022-08-19T18:48:55.087Z,25.76
2022-08-19T18:51:27.796Z,25.73
2022-08-19T18:53:59.051Z,25.63
2022-08-19T18:56:32.121Z,25.69
2022-08-19T18:59:02.222Z,25.71
2022-08-19T19:01:37.837Z,25.74
2022-08-19T19:04:11.914Z,25.77
2022-08-19T19:06:41.725Z,25.75
2022-08-19T19:09:17.776Z,25.72
2022-08-19T19:11:51.827Z,25.66
2022-08-19T19:14:48.137Z,25.52
2022-08-19T19:17:16.158Z,25.56
2022-08-19T19:19:44.786Z,25.57
2022-08-19T19:22:51.905Z,25.47
2022-08-19T19:25:27.625Z,25.33
2022-08-19T19:28:16.204Z,25.20
2022-08-19T19:30:44.966Z,25.45
2022-08-19T19:33:13.285Z,25.52
2022-08-19T19:35:47.135Z,25.32
2022-08-19T19:38:16.228Z,24.95
2022-08-19T19:40:45.036Z,25.07
2022-08-19T19:43:13.605Z,24.97
2022-08-19T19:45:42.238Z,25.10
2022-08-19T19:48:13.245Z,24.91
2022-08-19T19:50:42.518Z,24.90
2022-08-19T19:53:11.209Z,24.96
2022-08-19T19:55:41.692Z,24.97
2022-08-19T19:58:10.085Z,25.04
2022-08-19T20:00:39.102Z,25.09
2022-08-19T20:03:08.377Z,25.02
2022-08-19T20:05:36.658Z,25.20
2022-08-19T20:08:24.006Z,24.92
2022-08-19T20:10:53.134Z,25.08
2022-08-19T20:13:22.546Z,24.88
2022-08-19T20:15:50.938Z,24.82
2022-08-19T20:18:19.427Z,24.68
2022-08-19T20:20:50.480Z,24.76
2022-08-19T20:23:23.485Z,24.92
2022-08-19T20:25:54.350Z,24.93
2022-08-19T20:28:23.329Z,24.91
2022-08-19T20:30:51.733Z,24.97
2022-08-19T20:33:20.206Z,24.74
2022-08-19T20:35:48.673Z,25.01
2022-08-19T20:38:16.933Z,24.94
2022-08-19T20:40:45.583Z,24.93
2022-08-19T20:43:14.294Z,24.90
2022-08-19T20:45:42.652Z,24.84
2022-08-19T20:48:12.987Z,24.70
2022-08-19T20:50:41.327Z,24.96
2022-08-19T20:53:16.505Z,24.92
2022-08-19T20:55:49.348Z,25.06
2022-08-19T20:58:21.553Z,24.88
2022-08-19T21:00:50.807Z,24.96
2022-08-19T21:03:24.333Z,24.93
2022-08-19T21:05:53.783Z,25.09
2022-08-19T21:08:23.273Z,24.68
2022-08-19T21:10:52.603Z,24.74
2022-08-19T21:13:22.112Z,24.75
2022-08-19T21:15:51.666Z,24.73
2022-08-19T21:18:22.126Z,24.51
2022-08-19T21:20:51.820Z,24.52
2022-08-19T21:23:23.835Z,24.52
2022-08-19T21:25:55.733Z,24.69
2022-08-19T21:28:34.603Z,24.75
2022-08-19T21:31:07.083Z,24.67
2022-08-19T21:33:35.381Z,24.72
2022-08-19T21:36:05.103Z,24.40
2022-08-19T21:38:33.803Z,24.37
2022-08-19T21:41:05.899Z,24.43
2022-08-19T21:43:37.346Z,24.40
2022-08-19T21:46:05.873Z,24.43
2022-08-19T21:48:34.303Z,24.11
2022-08-19T21:51:02.913Z,24.04
2022-08-19T21:53:31.748Z,24.30
2022-08-19T21:56:06.996Z,24.04
2022-08-19T21:58:38.715Z,24.12
2022-08-19T22:01:08.340Z,23.82
2022-08-19T22:03:38.387Z,23.94
2022-08-19T22:06:06.983Z,24.10
2022-08-19T22:08:36.342Z,23.98
2022-08-19T22:11:05.193Z,23.95
2022-08-19T22:13:40.534Z,24.14
2022-08-19T22:16:10.505Z,24.33
2022-08-19T22:18:38.893Z,24.46
2022-08-19T22:21:11.669Z,24.31
2022-08-19T22:23:44.575Z,24.23
2022-08-19T22:26:14.413Z,24.33
2022-08-19T22:28:43.392Z,24.40
2022-08-19T22:31:12.025Z,24.02
2022-08-19T22:33:40.832Z,24.09
2022-08-19T22:36:09.352Z,24.03
2022-08-19T22:38:38.726Z,23.79
2022-08-19T22:41:07.973Z,23.71
2022-08-19T22:43:37.680Z,23.72
2022-08-19T22:46:16.924Z,23.69
2022-08-19T22:48:47.905Z,23.69
2022-08-19T22:51:43.402Z,23.78
2022-08-19T22:54:11.783Z,23.91
2022-08-19T22:56:40.322Z,23.94
2022-08-19T22:59:08.693Z,23.82
2022-08-19T23:01:37.066Z,23.57
2022-08-19T23:04:05.755Z,23.30
2022-08-19T23:06:36.336Z,23.21
2022-08-19T23:09:08.076Z,23.21
2022-08-19T23:11:41.926Z,23.32
2022-08-19T23:14:12.915Z,23.76
2022-08-19T23:16:42.323Z,23.77
2022-08-19T23:19:11.083Z,23.54
2022-08-19T23:21:41.502Z,23.43
2022-08-19T23:24:10.912Z,23.47
2022-08-19T23:27:00.025Z,23.47
2022-08-19T23:29:47.390Z,23.55
2022-08-19T23:32:19.554Z,23.53
2022-08-19T23:34:48.747Z,23.51
2022-08-19T23:37:17.485Z,23.66
2022-08-19T23:39:46.081Z,23.75
2022-08-19T23:42:14.755Z,23.71
2022-08-19T23:44:51.531Z,23.63
2022-08-19T23:47:21.649Z,23.42
2022-08-19T23:49:51.202Z,23.48
2022-08-19T23:52:20.234Z,23.21
2022-08-19T23:54:48.835Z,22.99
2022-08-19T23:57:17.225Z,23.14
2022-08-19T23:59:45.892Z,23.31
